.
WxDataArchive / Data Records for 2007-11-22
2007-11-21 November 2007 2007-11-23

Data Records for Thursday, 22 November 2007

Time	Temp	Chill	HIndex	Humid	Dewpt	 Wind 	HiWind	WindDir	Rain 	Barom 
-----	----	-----	------	-----	-----	------	------	-------	-----	----- 
00:00	40.9	40.9	40.9	95	39.6	2	6	45	0.00	29.693 
00:05	40.9	40.9	40.9	95	39.6	1	4	45	0.00	29.698 
00:10	40.9	40.9	40.9	95	39.6	1	3	45	0.00	29.692 
00:15	40.9	40.9	40.9	95	39.6	1	3	0	0.00	29.698 
00:20	40.8	40.8	40.8	95	39.5	1	3	45	0.00	29.706 
00:25	40.6	40.6	40.6	95	39.3	1	6	22	0.00	29.703 
00:30	40.6	40.6	40.6	95	39.3	1	5	22	0.00	29.696 
00:35	40.5	40.5	40.5	95	39.2	1	3	45	0.01	29.692 
00:40	40.3	40.3	40.3	95	39.0	1	5	292	0.00	29.697 
00:45	40.2	40.2	40.2	95	38.9	1	4	0	0.00	29.701 
00:50	40.1	40.1	40.1	95	38.8	1	3	22	0.00	29.710 
00:55	39.8	39.8	39.8	95	38.5	1	5	315	0.00	29.705 
01:00	39.5	39.5	39.5	95	38.2	1	6	338	0.00	29.710 
01:05	39.3	39.3	39.3	95	38.0	1	5	22	0.00	29.710 
01:10	39.2	39.2	39.2	95	37.9	1	4	22	0.00	29.708 
01:15	39.1	39.1	39.1	95	37.8	1	3	22	0.00	29.708 
01:20	39.1	39.1	39.1	95	37.8	1	4	0	0.00	29.708 
01:25	38.8	38.8	38.8	95	37.5	2	7	0	0.01	29.708 
01:30	38.8	38.8	38.8	95	37.5	1	4	22	0.00	29.708 
01:35	38.6	38.6	38.6	95	37.3	2	7	22	0.00	29.710 
01:40	38.6	38.6	38.6	95	37.3	1	4	45	0.00	29.708 
01:45	38.5	38.5	38.5	95	37.2	1	4	338	0.00	29.710 
01:50	38.3	38.3	38.3	95	37.0	1	5	22	0.00	29.712 
01:55	38.2	38.2	38.2	95	36.9	1	4	0	0.00	29.713 
02:00	38.2	38.2	38.2	95	36.9	2	4	22	0.00	29.719 
02:05	38.0	38.0	38.0	95	36.7	2	7	0	0.00	29.715 
02:10	38.0	38.0	38.0	95	36.7	1	5	0	0.00	29.724 
02:15	37.9	37.9	37.9	95	36.6	1	6	292	0.00	29.728 
02:20	37.8	37.8	37.8	95	36.5	2	7	22	0.00	29.728 
02:25	37.8	37.8	37.8	95	36.5	1	7	45	0.00	29.730 
02:30	37.6	37.6	37.6	95	36.3	2	6	338	0.00	29.741 
02:35	37.5	37.5	37.5	94	35.9	2	9	338	0.00	29.743 
02:40	37.5	37.5	37.5	94	35.9	3	9	292	0.00	29.743 
02:45	37.3	37.3	37.3	94	35.7	2	7	0	0.00	29.747 
02:50	36.9	36.9	36.9	94	35.3	2	11	0	0.00	29.745 
02:55	36.5	36.5	36.5	93	34.7	2	11	338	0.00	29.748 
03:00	36.2	36.2	36.2	93	34.4	2	6	338	0.00	29.746 
03:05	36.0	36.0	36.0	94	34.4	2	5	0	0.00	29.751 
03:10	35.9	35.9	35.9	94	34.3	2	4	315	0.00	29.756 
03:15	35.9	35.9	35.9	94	34.3	2	6	315	0.00	29.762 
03:20	35.8	35.8	35.8	94	34.2	2	7	0	0.01	29.763 
03:25	35.8	35.8	35.8	94	34.2	2	6	22	0.00	29.769 
03:30	35.8	35.8	35.8	94	34.2	1	11	45	0.00	29.774 
03:35	35.8	35.8	35.8	94	34.2	2	7	292	0.00	29.776 
03:40	35.6	35.6	35.6	94	34.0	2	5	315	0.00	29.776 
03:45	35.6	35.6	35.6	94	34.0	2	6	338	0.00	29.777 
03:50	35.6	35.6	35.6	94	34.0	2	5	338	0.00	29.778 
03:55	35.5	35.5	35.5	94	33.9	2	5	0	0.00	29.778 
04:00	35.6	35.6	35.6	94	34.0	1	4	338	0.00	29.781 
04:05	35.6	35.6	35.6	94	34.0	2	5	22	0.00	29.787 
04:10	35.5	35.5	35.5	94	33.9	2	5	0	0.00	29.791 
04:15	35.5	35.5	35.5	93	33.7	1	4	315	0.00	29.796 
04:20	35.3	35.3	35.3	93	33.5	1	4	0	0.00	29.798 
04:25	35.2	35.2	35.2	93	33.4	1	4	0	0.00	29.808 
04:30	35.0	35.0	35.0	93	33.2	1	5	0	0.00	29.807 
04:35	35.0	35.0	35.0	93	33.2	1	4	292	0.00	29.811 
04:40	34.9	34.9	34.9	93	33.1	1	4	0	0.00	29.814 
04:45	34.9	34.9	34.9	93	33.1	2	6	0	0.00	29.820 
04:50	34.7	34.7	34.7	94	33.2	2	4	0	0.00	29.822 
04:55	34.7	34.7	34.7	94	33.2	2	4	292	0.00	29.822 
05:00	34.6	34.6	34.6	93	32.8	2	6	315	0.00	29.825 
05:05	34.6	34.6	34.6	93	32.8	1	4	315	0.00	29.827 
05:10	34.4	34.4	34.4	93	32.6	2	6	22	0.00	29.832 
05:15	34.4	34.4	34.4	93	32.6	1	4	22	0.00	29.836 
05:20	34.4	34.4	34.4	93	32.6	1	9	338	0.01	29.840 
05:25	34.4	34.4	34.4	93	32.6	1	6	338	0.00	29.843 
05:30	34.4	34.4	34.4	93	32.6	2	6	315	0.00	29.844 
05:35	34.6	34.6	34.6	93	32.8	2	7	0	0.00	29.845 
05:40	34.6	34.6	34.6	93	32.8	2	6	0	0.00	29.850 
05:45	34.6	34.6	34.6	93	32.8	2	7	315	0.00	29.855 
05:50	34.7	34.7	34.7	92	32.6	2	7	292	0.00	29.857 
05:55	34.7	34.7	34.7	92	32.6	2	6	22	0.00	29.861 
06:00	34.7	34.7	34.7	91	32.3	2	5	315	0.00	29.871 
06:05	34.7	34.7	34.7	91	32.3	2	9	0	0.00	29.873 
06:10	34.9	34.9	34.9	91	32.5	2	5	292	0.00	29.876 
06:15	34.9	34.9	34.9	90	32.3	1	4	315	0.00	29.882 
06:20	34.9	34.9	34.9	90	32.3	1	7	315	0.00	29.884 
06:25	34.9	34.9	34.9	90	32.3	1	4	315	0.00	29.890 
06:30	34.9	34.9	34.9	89	32.0	2	9	292	0.00	29.892 
06:35	34.9	34.9	34.9	88	31.7	2	9	315	0.00	29.898 
06:40	35.0	35.0	35.0	88	31.8	1	4	338	0.00	29.904 
06:45	35.0	35.0	35.0	88	31.8	1	4	315	0.00	29.907 
06:50	35.0	35.0	35.0	87	31.5	1	6	22	0.00	29.909 
06:55	35.0	35.0	35.0	87	31.5	2	4	0	0.00	29.919 
07:00	35.0	35.0	35.0	86	31.2	2	6	292	0.00	29.922 
07:05	35.0	35.0	35.0	86	31.2	1	4	22	0.00	29.925 
07:10	35.0	35.0	35.0	86	31.2	2	7	22	0.00	29.926 
07:15	35.0	35.0	35.0	85	31.0	1	4	0	0.00	29.927 
07:20	35.0	35.0	35.0	86	31.2	1	4	22	0.00	29.933 
07:25	35.0	35.0	35.0	85	31.0	1	6	22	0.00	29.938 
07:30	35.0	35.0	35.0	85	31.0	1	4	0	0.00	29.941 
07:35	34.9	34.9	34.9	85	30.9	2	7	338	0.00	29.952 
07:40	34.9	34.9	34.9	85	30.9	1	7	338	0.00	29.955 
07:45	34.9	34.9	34.9	85	30.9	1	3	338	0.00	29.962 
07:50	34.9	34.9	34.9	85	30.9	2	7	338	0.00	29.970 
07:55	34.9	34.9	34.9	85	30.9	0	3	315	0.00	29.971 
08:00	34.9	34.9	34.9	85	30.9	1	4	338	0.00	29.972 
08:05	34.9	34.9	34.9	85	30.9	1	5	270	0.00	29.980 
08:10	34.9	34.9	34.9	85	30.9	1	3	338	0.00	29.985 
08:15	34.9	34.9	34.9	85	30.9	1	4	338	0.00	29.985 
08:20	35.0	35.0	35.0	85	31.0	1	2	22	0.00	29.987 
08:25	35.0	35.0	35.0	85	31.0	2	7	0	0.00	29.994 
08:30	35.0	35.0	35.0	85	31.0	1	4	338	0.00	30.000 
08:35	35.0	35.0	35.0	84	30.7	1	3	292	0.00	30.002 
08:40	35.0	35.0	35.0	84	30.7	1	5	0	0.00	30.003 
08:45	35.0	35.0	35.0	84	30.7	1	9	315	0.00	30.006 
08:50	35.0	35.0	35.0	82	30.1	2	4	315	0.00	30.014 
08:55	35.0	35.0	35.0	82	30.1	1	6	0	0.00	30.014 
09:00	35.2	35.2	35.2	83	30.6	1	3	338	0.00	30.016 
09:05	35.3	35.3	35.3	82	30.4	2	5	315	0.00	30.018 
09:10	35.3	35.3	35.3	82	30.4	2	6	0	0.00	30.019 
09:15	35.3	35.3	35.3	82	30.4	2	5	0	0.00	30.029 
09:20	35.3	35.3	35.3	81	30.1	2	6	338	0.00	30.028 
09:25	35.3	35.3	35.3	81	30.1	1	3	338	0.00	30.032 
09:30	35.5	35.5	35.5	81	30.3	1	3	338	0.00	30.030 
09:35	35.6	35.6	35.6	81	30.4	1	3	0	0.00	30.029 
09:40	35.6	35.6	35.6	81	30.4	1	4	0	0.00	30.026 
09:45	35.8	35.8	35.8	80	30.2	1	4	315	0.00	30.026 
09:50	35.8	35.8	35.8	80	30.2	1	5	22	0.00	30.029 
09:55	35.9	35.9	35.9	79	30.0	1	6	22	0.00	30.030 
10:00	36.3	36.3	36.3	80	30.7	1	4	338	0.00	30.030 
10:05	36.6	36.6	36.6	78	30.4	1	4	0	0.00	30.033 
10:10	36.6	36.6	36.6	77	30.1	1	6	315	0.00	30.037 
10:15	36.5	36.5	36.5	77	30.0	1	5	338	0.00	30.046 
10:20	36.5	36.5	36.5	77	30.0	1	5	22	0.00	30.048 
10:25	36.6	36.6	36.6	77	30.1	1	3	45	0.00	30.049 
10:30	36.8	36.8	36.8	77	30.3	1	2	338	0.00	30.058 
10:35	36.6	36.6	36.6	76	29.8	1	5	338	0.00	30.064 
10:40	36.3	36.3	36.3	75	29.1	1	6	338	0.00	30.068 
10:45	36.3	36.3	36.3	75	29.1	1	3	22	0.00	30.073 
10:50	36.6	36.6	36.6	75	29.4	0	3	22	0.00	30.073 
10:55	36.5	36.5	36.5	75	29.3	1	3	292	0.00	30.079 
11:00	36.3	36.3	36.3	74	28.8	1	6	0	0.00	30.081 
11:05	36.3	36.3	36.3	75	29.1	1	3	45	0.00	30.081 
11:10	36.5	36.5	36.5	75	29.3	1	4	22	0.00	30.080 
11:15	36.6	36.6	36.6	77	30.1	0	3	292	0.00	30.082 
11:20	36.5	36.5	36.5	75	29.3	1	4	315	0.00	30.085 
11:25	36.5	36.5	36.5	75	29.3	1	4	315	0.00	30.090 
11:30	36.3	36.3	36.3	73	28.5	2	6	270	0.00	30.093 
11:35	36.6	36.6	36.6	74	29.1	1	4	315	0.00	30.088 
11:40	36.6	36.6	36.6	72	28.4	1	4	338	0.00	30.087 
11:45	36.6	36.6	36.6	73	28.8	1	3	0	0.00	30.087 
11:50	36.8	36.8	36.8	75	29.6	0	3	0	0.00	30.088 
11:55	36.8	36.8	36.8	75	29.6	1	3	292	0.00	30.091 
12:00	36.6	36.6	36.6	76	29.8	1	4	292	0.00	30.092 
12:05	36.8	36.8	36.8	76	30.0	1	3	292	0.00	30.095 
12:10	37.2	37.2	37.2	75	30.0	0	2	292	0.00	30.096 
12:15	37.6	37.6	37.6	74	30.1	1	2	0	0.00	30.095 
12:20	37.6	37.6	37.6	75	30.4	1	3	315	0.00	30.095 
12:25	37.2	37.2	37.2	77	30.7	1	2	315	0.00	30.097 
12:30	37.2	37.2	37.2	77	30.7	1	5	315	0.00	30.098 
12:35	37.3	37.3	37.3	76	30.4	1	4	292	0.00	30.099 
12:40	37.0	37.0	37.0	74	29.5	1	4	315	0.00	30.099 
12:45	36.9	36.9	36.9	73	29.1	1	2	315	0.00	30.100 
12:50	37.2	37.2	37.2	72	29.0	1	4	315	0.00	30.099 
12:55	37.9	37.9	37.9	71	29.4	1	5	338	0.00	30.097 
13:00	38.3	38.3	38.3	68	28.7	1	3	315	0.00	30.099 
13:05	38.0	38.0	38.0	68	28.4	1	5	338	0.00	30.102 
13:10	37.5	37.5	37.5	70	28.6	2	5	315	0.00	30.106 
13:15	37.3	37.3	37.3	72	29.1	1	3	0	0.00	30.110 
13:20	37.5	37.5	37.5	70	28.6	2	5	338	0.00	30.112 
13:25	37.5	37.5	37.5	69	28.3	2	4	0	0.00	30.113 
13:30	37.5	37.5	37.5	70	28.6	1	3	338	0.00	30.112 
13:35	37.3	37.3	37.3	71	28.8	1	4	338	0.00	30.115 
13:40	37.2	37.2	37.2	71	28.7	1	3	0	0.00	30.115 
13:45	37.0	37.0	37.0	70	28.1	1	3	338	0.00	30.114 
13:50	37.5	37.5	37.5	71	29.0	1	3	0	0.00	30.116 
13:55	37.8	37.8	37.8	69	28.6	2	4	292	0.00	30.115 
14:00	38.3	38.3	38.3	68	28.7	1	5	292	0.00	30.114 
14:05	38.3	38.3	38.3	63	26.8	1	5	292	0.00	30.116 
14:10	38.2	38.2	38.2	63	26.7	1	4	338	0.00	30.118 
14:15	38.2	38.2	38.2	63	26.7	1	3	0	0.00	30.117 
14:20	38.2	38.2	38.2	63	26.7	1	5	0	0.00	30.119 
14:25	38.2	38.2	38.2	62	26.3	1	3	315	0.00	30.123 
14:30	38.0	38.0	38.0	63	26.5	1	4	315	0.00	30.126 
14:35	38.0	38.0	38.0	64	26.9	0	2	315	0.00	30.127 
14:40	37.9	37.9	37.9	64	26.8	1	2	338	0.00	30.128 
14:45	37.9	37.9	37.9	65	27.2	1	4	292	0.00	30.129 
14:50	38.0	38.0	38.0	64	26.9	1	4	292	0.00	30.129 
14:55	38.2	38.2	38.2	64	27.1	1	3	338	0.00	30.130 
15:00	38.2	38.2	38.2	65	27.5	1	2	338	0.00	30.131 
15:05	37.9	37.9	37.9	65	27.2	1	4	0	0.00	30.132 
15:10	37.8	37.8	37.8	65	27.1	0	3	338	0.00	30.132 
15:15	37.6	37.6	37.6	65	26.9	1	4	338	0.00	30.134 
15:20	37.6	37.6	37.6	65	26.9	1	4	338	0.00	30.136 
15:25	37.6	37.6	37.6	66	27.3	0	2	22	0.00	30.138 
15:30	37.6	37.6	37.6	65	26.9	1	3	22	0.00	30.139 
15:35	37.6	37.6	37.6	66	27.3	1	3	22	0.00	30.143 
15:40	37.6	37.6	37.6	66	27.3	0	3	338	0.00	30.145 
15:45	37.5	37.5	37.5	66	27.2	1	2	338	0.00	30.147 
15:50	37.5	37.5	37.5	66	27.2	1	3	315	0.00	30.148 
15:55	37.5	37.5	37.5	67	27.6	0	2	315	0.00	30.150 
16:00	37.5	37.5	37.5	66	27.2	0	1	315	0.00	30.152 
16:05	37.5	37.5	37.5	67	27.6	0	1	315	0.00	30.158 
16:10	37.5	37.5	37.5	65	26.8	0	2	315	0.00	30.160 
16:15	37.3	37.3	37.3	63	25.9	0	3	22	0.00	30.161 
16:20	37.2	37.2	37.2	64	26.2	0	2	22	0.00	30.162 
16:25	37.0	37.0	37.0	65	26.3	0	1	22	0.00	30.163 
16:30	36.9	36.9	36.9	65	26.3	0	1	22	0.00	30.164 
16:35	36.8	36.8	36.8	65	26.2	0	0	---	0.00	30.165 
16:40	36.8	36.8	36.8	64	25.8	0	1	22	0.00	30.167 
16:45	36.8	36.8	36.8	66	26.5	0	0	---	0.00	30.166 
16:50	36.8	36.8	36.8	65	26.2	0	1	22	0.00	30.167 
16:55	36.6	36.6	36.6	65	26.0	0	1	22	0.00	30.168 
17:00	36.3	36.3	36.3	65	25.7	0	1	22	0.00	30.172 
17:05	36.2	36.2	36.2	65	25.6	0	1	22	0.00	30.173 
17:10	35.9	35.9	35.9	66	25.7	0	1	22	0.00	30.176 
17:15	35.8	35.8	35.8	66	25.6	0	1	22	0.00	30.178 
17:20	35.5	35.5	35.5	67	25.6	0	0	---	0.00	30.179 
17:25	35.3	35.3	35.3	67	25.5	0	1	22	0.00	30.181 
17:30	35.2	35.2	35.2	68	25.7	0	1	22	0.00	30.181 
17:35	35.0	35.0	35.0	69	25.9	0	0	---	0.00	30.183 
17:40	35.0	35.0	35.0	69	25.9	0	0	---	0.00	30.184 
17:45	35.2	35.2	35.2	69	26.1	0	0	---	0.00	30.186 
17:50	35.2	35.2	35.2	70	26.4	0	0	---	0.00	30.187 
17:55	35.0	35.0	35.0	70	26.2	0	0	---	0.00	30.192 
18:00	35.0	35.0	35.0	71	26.6	0	0	---	0.00	30.195 
18:05	35.0	35.0	35.0	71	26.6	0	0	---	0.00	30.197 
18:10	35.0	35.0	35.0	72	26.9	0	0	---	0.00	30.198 
18:15	35.0	35.0	35.0	72	26.9	0	0	---	0.00	30.200 
18:20	35.0	35.0	35.0	73	27.2	0	0	---	0.00	30.203 
18:25	34.9	34.9	34.9	73	27.1	0	0	---	0.00	30.205 
18:30	34.9	34.9	34.9	73	27.1	0	0	---	0.00	30.208 
18:35	34.7	34.7	34.7	73	26.9	0	0	---	0.00	30.210 
18:40	34.7	34.7	34.7	73	26.9	0	0	---	0.00	30.212 
18:45	34.6	34.6	34.6	74	27.2	0	0	---	0.00	30.212 
18:50	34.4	34.4	34.4	74	27.0	0	0	---	0.00	30.215 
18:55	34.3	34.3	34.3	75	27.2	0	0	---	0.00	30.216 
19:00	34.3	34.3	34.3	75	27.2	0	0	---	0.00	30.217 
19:05	34.3	34.3	34.3	76	27.5	0	0	---	0.00	30.217 
19:10	34.1	34.1	34.1	76	27.3	0	0	---	0.00	30.217 
19:15	34.1	34.1	34.1	76	27.3	0	0	---	0.00	30.217 
19:20	34.1	34.1	34.1	77	27.7	0	0	---	0.00	30.217 
19:25	34.0	34.0	34.0	77	27.6	0	0	---	0.00	30.217 
19:30	34.0	34.0	34.0	77	27.6	0	0	---	0.00	30.218 
19:35	33.8	33.8	33.8	77	27.4	0	0	---	0.00	30.219 
19:40	33.7	33.7	33.7	77	27.3	0	0	---	0.00	30.218 
19:45	33.5	33.5	33.5	77	27.1	0	0	---	0.00	30.219 
19:50	33.7	33.7	33.7	79	27.9	0	0	---	0.00	30.222 
19:55	33.7	33.7	33.7	79	27.9	0	0	---	0.00	30.225 
20:00	33.7	33.7	33.7	81	28.5	0	0	---	0.00	30.226 
20:05	33.7	33.7	33.7	81	28.5	0	0	---	0.00	30.228 
20:10	33.8	33.8	33.8	81	28.6	0	0	---	0.00	30.230 
20:15	33.8	33.8	33.8	81	28.6	0	0	---	0.00	30.230 
20:20	34.0	34.0	34.0	81	28.8	0	0	---	0.00	30.231 
20:25	34.3	34.3	34.3	77	27.9	0	1	22	0.00	30.231 
20:30	34.6	34.6	34.6	75	27.5	0	1	22	0.00	30.232 
20:35	34.7	34.7	34.7	74	27.3	0	0	---	0.00	30.230 
20:40	34.9	34.9	34.9	74	27.5	0	1	22	0.00	30.230 
20:45	34.9	34.9	34.9	76	28.1	0	1	22	0.00	30.229 
20:50	35.0	35.0	35.0	77	28.5	0	1	22	0.00	30.230 
20:55	35.0	35.0	35.0	78	28.8	0	1	22	0.00	30.230 
21:00	35.0	35.0	35.0	80	29.5	0	1	22	0.00	30.232 
21:05	35.0	35.0	35.0	80	29.5	0	1	22	0.00	30.233 
21:10	35.0	35.0	35.0	81	29.8	0	1	22	0.00	30.234 
21:15	35.0	35.0	35.0	82	30.1	0	2	248	0.00	30.236 
21:20	34.9	34.9	34.9	84	30.6	0	2	270	0.00	30.238 
21:25	34.7	34.7	34.7	85	30.7	1	2	292	0.00	30.238 
21:30	34.6	34.6	34.6	85	30.6	0	1	292	0.00	30.240 
21:35	34.4	34.4	34.4	86	30.7	0	1	292	0.00	30.243 
21:40	34.4	34.4	34.4	87	30.9	0	1	292	0.00	30.242 
21:45	34.3	34.3	34.3	87	30.8	0	1	292	0.00	30.241 
21:50	34.3	34.3	34.3	87	30.8	0	1	292	0.00	30.241 
21:55	34.3	34.3	34.3	88	31.1	0	2	292	0.00	30.243 
22:00	34.1	34.1	34.1	88	30.9	0	2	292	0.00	30.243 
22:05	33.7	33.7	33.7	81	28.5	0	1	292	0.00	30.244 
22:10	33.5	33.5	33.5	78	27.4	0	1	292	0.00	30.245 
22:15	33.5	33.5	33.5	77	27.1	0	0	---	0.00	30.246 
22:20	33.7	33.7	33.7	77	27.3	0	1	292	0.00	30.245 
22:25	33.7	33.7	33.7	81	28.5	0	2	292	0.00	30.247 
22:30	33.5	33.5	33.5	84	29.2	1	2	292	0.00	30.248 
22:35	33.1	33.1	33.1	84	28.8	1	2	292	0.00	30.251 
22:40	32.7	32.7	32.7	85	28.7	1	2	270	0.00	30.252 
22:45	32.5	32.5	32.5	85	28.5	0	2	270	0.00	30.252 
22:50	32.5	32.5	32.5	86	28.8	1	3	270	0.00	30.251 
22:55	32.4	32.4	32.4	87	29.0	1	3	248	0.00	30.252 
23:00	32.2	32.2	32.2	88	29.1	1	3	270	0.00	30.250 
23:05	32.2	32.2	32.2	88	29.1	1	4	248	0.00	30.250 
23:10	32.1	32.1	32.1	89	29.2	1	3	248	0.00	30.249 
23:15	32.1	32.1	32.1	89	29.2	0	2	248	0.00	30.250 
23:20	31.9	31.9	31.9	90	29.3	0	2	248	0.00	30.249 
23:25	31.9	31.9	31.9	90	29.3	1	4	225	0.00	30.250 
23:30	31.9	31.9	31.9	90	29.3	0	1	225	0.00	30.253 
23:35	31.9	31.9	31.9	90	29.3	0	1	225	0.00	30.254 
23:40	31.9	31.9	31.9	90	29.3	0	2	225	0.00	30.255 
23:45	31.9	31.9	31.9	90	29.3	0	1	225	0.00	30.254 
23:50	31.9	31.9	31.9	90	29.3	0	1	225	0.00	30.256 
23:55	31.9	31.9	31.9	90	29.3	0	1	225	0.00	30.255 

CoCoRaHS
IN-AL-39
A2 Web Hosting
Creative Commons License
GoDaddy
Look for:

loaded 2017-12-11 14:13:07 • last modified 2010-11-18 10:43:29
Privacy PolicyDisclaimer
• wx.awcolley.com is powered by PmWiki v.2002016 •
• all content (unless otherwise noted) © 2017 A W Colley